Time;durP1;ratioP1;P1;durP2;ratioP2;P2;SDS_P1;SDS_P2;PMS_P1;PMS_P2;Temp;Humidity;BMP_temperature;BMP_pressure;BME280_temperature;BME280_humidity;BME280_pressure;Samples;Min_cycle;Max_cycle;Signal;HPM_P1;HPM_P2
2023/12/02 00:00:12;;;;;;;27.20;15.80;;;0.60;99.90;;;;;;5068356;28;20697;-73
2023/12/02 00:02:38;;;;;;;27.30;14.93;;;0.60;99.90;;;;;;5066902;28;20299;-74
2023/12/02 00:05:04;;;;;;;28.07;14.70;;;0.60;99.90;;;;;;5050373;28;20266;-74
2023/12/02 00:07:30;;;;;;;23.80;13.97;;;0.60;99.90;;;;;;5068273;28;20715;-74
2023/12/02 00:09:55;;;;;;;27.60;15.90;;;0.60;99.90;;;;;;5067097;28;20421;-74
2023/12/02 00:12:21;;;;;;;23.80;13.70;;;0.60;99.90;;;;;;5068002;28;20212;-74
2023/12/02 00:14:46;;;;;;;23.73;14.97;;;0.60;99.90;;;;;;5067012;28;20234;-74
2023/12/02 00:17:12;;;;;;;29.50;15.33;;;0.60;99.90;;;;;;5068304;28;20215;-73
2023/12/02 00:19:38;;;;;;;22.13;14.57;;;0.60;99.90;;;;;;5068631;28;20682;-76
2023/12/02 00:22:05;;;;;;;26.33;14.77;;;0.70;99.90;;;;;;5068121;28;20203;-76
2023/12/02 00:24:31;;;;;;;23.52;14.15;;;0.60;99.90;;;;;;5053015;28;20241;-76
2023/12/02 00:26:56;;;;;;;26.13;14.93;;;0.70;99.90;;;;;;5072064;28;20196;-76
2023/12/02 00:29:22;;;;;;;27.17;14.90;;;0.70;99.90;;;;;;5070536;28;20261;-76
2023/12/02 00:31:47;;;;;;;24.37;15.47;;;0.70;99.90;;;;;;5054099;28;20191;-76
2023/12/02 00:34:13;;;;;;;29.70;15.83;;;0.70;99.90;;;;;;5053686;28;20618;-76
2023/12/02 00:36:39;;;;;;;28.63;14.97;;;0.70;99.90;;;;;;5070377;28;20192;-76
2023/12/02 00:39:04;;;;;;;22.17;14.30;;;0.70;99.90;;;;;;5070435;28;20208;-75
2023/12/02 00:41:30;;;;;;;23.23;14.63;;;0.70;99.90;;;;;;5071532;28;20842;-75
2023/12/02 00:43:55;;;;;;;26.37;14.63;;;0.70;99.90;;;;;;5071742;28;20183;-75
2023/12/02 00:46:21;;;;;;;26.00;15.07;;;0.70;99.90;;;;;;5070273;28;20190;-76
2023/12/02 00:48:48;;;;;;;26.10;16.27;;;0.70;99.90;;;;;;5071701;28;20717;-76
2023/12/02 00:51:14;;;;;;;26.77;15.35;;;0.70;99.90;;;;;;5071661;28;20459;-76
2023/12/02 00:53:40;;;;;;;22.60;14.40;;;0.80;99.90;;;;;;5071522;28;20202;-76
2023/12/02 00:56:06;;;;;;;24.70;14.13;;;0.70;99.90;;;;;;5070065;28;20190;-76
2023/12/02 00:58:32;;;;;;;26.42;14.68;;;0.70;99.90;;;;;;5069846;28;20234;-76
2023/12/02 01:00:57;;;;;;;24.73;14.33;;;0.70;99.90;;;;;;5071591;28;20179;-77
2023/12/02 01:03:23;;;;;;;26.13;14.53;;;0.70;99.90;;;;;;5071301;28;20430;-78
2023/12/02 01:05:49;;;;;;;26.40;14.80;;;0.70;99.90;;;;;;5072184;28;20176;-78
2023/12/02 01:08:14;;;;;;;25.77;14.70;;;0.60;99.90;;;;;;5071831;28;20181;-78
2023/12/02 01:10:40;;;;;;;27.90;15.20;;;0.70;99.90;;;;;;5070146;28;20183;-77
2023/12/02 01:13:05;;;;;;;24.03;13.63;;;0.60;99.90;;;;;;5071332;28;20211;-76
2023/12/02 01:15:31;;;;;;;35.20;14.27;;;0.60;99.90;;;;;;5069891;28;20214;-76
2023/12/02 01:17:57;;;;;;;24.70;14.10;;;0.60;99.90;;;;;;5053075;28;20217;-76
2023/12/02 01:20:22;;;;;;;21.97;13.83;;;0.60;99.90;;;;;;5071375;28;20184;-77
2023/12/02 01:22:48;;;;;;;26.73;13.97;;;0.60;99.90;;;;;;5071484;28;20579;-76
2023/12/02 01:25:13;;;;;;;27.07;15.00;;;0.70;99.90;;;;;;5072243;28;20179;-75
2023/12/02 01:27:39;;;;;;;25.00;14.50;;;0.60;99.90;;;;;;5054367;28;20180;-75
2023/12/02 01:30:05;;;;;;;21.87;14.17;;;0.50;99.90;;;;;;5071795;28;20185;-76
2023/12/02 01:32:31;;;;;;;25.55;14.18;;;0.50;99.90;;;;;;5071372;28;20206;-75
2023/12/02 01:34:56;;;;;;;27.40;14.00;;;0.50;99.90;;;;;;5070150;28;20279;-75
2023/12/02 01:37:22;;;;;;;24.20;14.73;;;0.50;99.90;;;;;;5070327;28;20176;-75
2023/12/02 01:39:47;;;;;;;24.43;14.43;;;0.50;99.90;;;;;;5070237;28;20652;-74
2023/12/02 01:42:13;;;;;;;29.27;14.47;;;0.50;99.90;;;;;;5071056;28;20735;-74
2023/12/02 01:44:39;;;;;;;29.90;15.53;;;0.40;99.90;;;;;;5071238;28;20187;-75
2023/12/02 01:47:05;;;;;;;23.95;14.70;;;0.40;99.90;;;;;;5069820;28;20184;-75
2023/12/02 01:49:32;;;;;;;28.00;14.63;;;0.50;99.90;;;;;;5071031;28;20275;-75
2023/12/02 01:51:58;;;;;;;29.52;15.35;;;0.40;99.90;;;;;;5071075;28;20212;-75
2023/12/02 01:54:23;;;;;;;25.60;13.23;;;0.40;99.90;;;;;;5071076;28;20257;-74
2023/12/02 01:56:49;;;;;;;27.80;15.93;;;0.40;99.90;;;;;;5070867;28;20263;-74
2023/12/02 01:59:15;;;;;;;28.90;15.43;;;0.30;99.90;;;;;;5069190;28;20236;-74
2023/12/02 02:01:40;;;;;;;26.37;15.77;;;0.40;99.90;;;;;;5070639;28;20211;-75
2023/12/02 02:04:07;;;;;;;28.90;15.63;;;0.40;99.90;;;;;;5069182;28;20687;-74
2023/12/02 02:06:33;;;;;;;30.83;15.48;;;0.40;99.90;;;;;;5070275;28;20206;-75
2023/12/02 02:08:59;;;;;;;28.92;15.50;;;0.40;99.90;;;;;;5070461;28;20202;-75
2023/12/02 02:11:24;;;;;;;28.40;14.50;;;0.40;99.90;;;;;;5070378;28;20293;-75
2023/12/02 02:13:50;;;;;;;26.43;15.80;;;0.40;99.90;;;;;;5070634;28;20190;-74
2023/12/02 02:16:16;;;;;;;29.57;15.53;;;0.30;99.90;;;;;;5070326;28;20426;-75
2023/12/02 02:18:41;;;;;;;27.27;15.47;;;0.30;99.90;;;;;;5070497;28;20215;-73
2023/12/02 02:21:07;;;;;;;28.07;15.50;;;0.20;99.90;;;;;;5052128;28;20213;-75
2023/12/02 02:23:32;;;;;;;28.03;15.53;;;0.30;99.90;;;;;;5069034;28;20221;-75
2023/12/02 02:25:58;;;;;;;29.07;15.23;;;0.30;99.90;;;;;;5070077;28;20175;-74
2023/12/02 02:28:26;;;;;;;26.70;14.40;;;0.30;99.90;;;;;;5070352;28;20884;-74
2023/12/02 02:30:52;;;;;;;25.33;14.07;;;0.30;99.90;;;;;;5070354;28;20448;-75
2023/12/02 02:33:18;;;;;;;26.80;13.33;;;0.30;99.90;;;;;;5070377;28;20238;-74
2023/12/02 02:35:44;;;;;;;24.30;14.93;;;0.30;99.90;;;;;;5070300;28;20414;-77
2023/12/02 02:38:10;;;;;;;28.80;14.88;;;0.20;99.90;;;;;;5068976;28;20217;-77
2023/12/02 02:40:36;;;;;;;27.38;15.70;;;0.20;99.90;;;;;;5070171;28;20202;-76
2023/12/02 02:43:02;;;;;;;30.27;16.07;;;0.20;99.90;;;;;;5068839;28;20196;-77
2023/12/02 02:45:27;;;;;;;26.20;15.00;;;0.20;99.90;;;;;;5069898;28;20661;-77
2023/12/02 02:47:53;;;;;;;23.57;14.00;;;0.30;99.90;;;;;;5068736;28;20784;-77
2023/12/02 02:50:19;;;;;;;28.57;14.93;;;0.20;99.90;;;;;;5070859;28;20180;-79
2023/12/02 02:52:46;;;;;;;31.47;16.40;;;0.30;99.90;;;;;;5052199;28;20211;-78
2023/12/02 02:55:12;;;;;;;25.00;14.73;;;0.30;99.90;;;;;;5070354;28;20198;-77
2023/12/02 02:57:37;;;;;;;31.83;15.40;;;0.20;99.90;;;;;;5069921;28;20270;-77
2023/12/02 03:00:09;;;;;;;30.73;14.53;;;0.20;99.90;;;;;;5069588;28;20312;-77
2023/12/02 03:02:38;;;;;;;24.73;14.52;;;0.20;99.90;;;;;;5069945;28;20204;-76
2023/12/02 03:05:05;;;;;;;27.90;15.10;;;0.20;99.90;;;;;;5069365;28;20185;-76
2023/12/02 03:07:34;;;;;;;27.33;15.60;;;0.20;99.90;;;;;;5069297;28;20202;-76
2023/12/02 03:10:00;;;;;;;26.98;14.75;;;0.20;99.90;;;;;;5068058;28;20195;-75
2023/12/02 03:12:26;;;;;;;28.88;16.20;;;0.10;99.90;;;;;;5069587;28;20199;-76
2023/12/02 03:14:53;;;;;;;27.17;14.80;;;0.20;99.90;;;;;;5068196;28;20200;-76
2023/12/02 03:17:18;;;;;;;29.48;16.10;;;0.20;99.90;;;;;;5069026;28;20620;-78
2023/12/02 03:19:44;;;;;;;33.23;16.47;;;0.20;99.90;;;;;;5069894;28;20211;-77
2023/12/02 03:22:10;;;;;;;27.57;15.00;;;0.20;99.90;;;;;;5069433;28;20201;-77
2023/12/02 03:24:35;;;;;;;31.17;17.00;;;0.20;99.90;;;;;;5069473;28;20662;-77
2023/12/02 03:27:02;;;;;;;30.27;15.13;;;0.30;99.90;;;;;;5052054;28;20262;-77
2023/12/02 03:29:28;;;;;;;28.50;14.60;;;0.30;99.90;;;;;;5069588;28;20186;-77
2023/12/02 03:31:54;;;;;;;27.20;15.07;;;0.30;99.90;;;;;;5069077;28;20213;-78
2023/12/02 03:34:19;;;;;;;34.77;16.67;;;0.30;99.90;;;;;;5069741;28;20183;-77
2023/12/02 03:36:45;;;;;;;28.07;15.50;;;0.30;99.90;;;;;;5069887;28;20176;-78
2023/12/02 03:39:13;;;;;;;30.37;16.73;;;0.20;99.90;;;;;;5069099;28;20208;-79
2023/12/02 03:41:42;;;;;;;29.58;16.20;;;0.20;99.90;;;;;;5069595;28;20196;-79
2023/12/02 03:44:11;;;;;;;29.35;16.13;;;0.20;99.90;;;;;;5070210;28;20235;-78
2023/12/02 03:46:37;;;;;;;34.67;17.73;;;0.10;99.90;;;;;;5069568;28;20208;-78
2023/12/02 03:49:03;;;;;;;31.57;17.50;;;0.10;99.90;;;;;;5069428;28;20233;-78
2023/12/02 03:51:29;;;;;;;35.88;17.25;;;0.20;99.90;;;;;;5068977;28;20533;-77
2023/12/02 03:53:55;;;;;;;41.03;18.27;;;0.10;99.90;;;;;;5071101;28;20282;-77
2023/12/02 03:56:21;;;;;;;38.87;18.30;;;0.20;99.90;;;;;;5069811;28;20176;-76
2023/12/02 03:58:47;;;;;;;44.57;21.10;;;0.10;99.90;;;;;;5070382;28;20502;-76
2023/12/02 04:01:13;;;;;;;43.40;20.90;;;0.10;99.90;;;;;;5071409;28;20202;-76
2023/12/02 04:03:39;;;;;;;35.15;18.08;;;0.10;99.90;;;;;;5073063;28;20177;-78
2023/12/02 04:06:05;;;;;;;47.97;18.37;;;0.10;99.90;;;;;;5071553;28;20390;-77
2023/12/02 04:08:31;;;;;;;34.50;17.27;;;0.10;99.90;;;;;;5072831;28;20585;-76
2023/12/02 04:10:57;;;;;;;39.95;18.10;;;0.10;99.90;;;;;;5071839;28;20199;-78
2023/12/02 04:13:23;;;;;;;33.50;18.13;;;0.10;99.90;;;;;;5071921;28;20208;-77
2023/12/02 04:15:48;;;;;;;33.00;18.27;;;0.10;99.90;;;;;;5072400;28;20190;-78
2023/12/02 04:18:14;;;;;;;34.60;17.70;;;0.10;99.90;;;;;;5073226;28;20244;-78
2023/12/02 04:20:40;;;;;;;39.37;18.80;;;0.20;99.90;;;;;;5071473;28;20717;-75
2023/12/02 04:23:05;;;;;;;37.73;19.00;;;0.10;99.90;;;;;;5072240;28;20205;-77
2023/12/02 04:25:31;;;;;;;37.00;18.50;;;0.10;99.90;;;;;;5072362;28;20427;-77
2023/12/02 04:27:57;;;;;;;32.97;18.00;;;0.10;99.90;;;;;;5053837;28;20285;-77
2023/12/02 04:30:22;;;;;;;33.63;18.30;;;0.10;99.90;;;;;;5072201;28;20179;-77
2023/12/02 04:32:48;;;;;;;39.43;18.37;;;0.10;99.90;;;;;;5054077;28;20202;-77
2023/12/02 04:35:14;;;;;;;38.40;17.73;;;0.10;99.90;;;;;;5072477;28;20179;-77
2023/12/02 04:37:41;;;;;;;37.13;16.35;;;0.10;99.90;;;;;;5054051;28;20242;-77
2023/12/02 04:40:11;;;;;;;41.35;18.85;;;0.00;99.90;;;;;;5072323;28;20230;-77
2023/12/02 04:42:37;;;;;;;42.17;18.95;;;0.10;99.90;;;;;;5072179;28;20205;-77
2023/12/02 04:45:03;;;;;;;40.50;18.75;;;0.10;99.90;;;;;;5072374;28;20185;-77
2023/12/02 04:47:29;;;;;;;40.28;18.75;;;0.00;99.90;;;;;;5070650;28;20183;-76
2023/12/02 04:49:55;;;;;;;41.17;19.83;;;0.00;99.90;;;;;;5070528;28;20239;-76
2023/12/02 04:52:20;;;;;;;36.00;18.90;;;0.10;99.90;;;;;;5070631;28;20246;-77
2023/12/02 04:54:46;;;;;;;39.40;18.87;;;0.10;99.90;;;;;;5072548;28;20195;-77
2023/12/02 04:57:11;;;;;;;38.20;18.00;;;0.10;99.90;;;;;;5070518;28;20939;-76
2023/12/02 04:59:37;;;;;;;37.80;17.87;;;0.10;99.90;;;;;;5071921;28;20212;-77
2023/12/02 05:02:03;;;;;;;40.27;19.10;;;0.10;99.90;;;;;;5071949;28;20848;-75
2023/12/02 05:04:29;;;;;;;33.70;18.23;;;0.10;99.90;;;;;;5070419;28;20451;-76
2023/12/02 05:06:54;;;;;;;38.43;17.90;;;0.10;99.90;;;;;;5071844;28;20215;-75
2023/12/02 05:09:21;;;;;;;34.00;17.17;;;0.10;99.90;;;;;;5041323;28;20191;-81
2023/12/02 05:11:47;;;;;;;38.15;18.10;;;0.10;99.90;;;;;;5055975;28;20260;-79
2023/12/02 05:14:12;;;;;;;36.07;18.27;;;0.10;99.90;;;;;;5071654;28;20184;-79
2023/12/02 05:16:42;;;;;;;35.83;16.77;;;0.10;99.90;;;;;;5037370;28;20191;-79
2023/12/02 05:19:08;;;;;;;35.85;16.35;;;0.00;99.90;;;;;;5054373;28;20606;-76
2023/12/02 05:21:35;;;;;;;31.77;16.03;;;0.00;99.90;;;;;;5072210;28;20214;-77
2023/12/02 05:24:00;;;;;;;35.35;16.15;;;0.00;99.90;;;;;;5072047;28;20565;-76
2023/12/02 05:26:26;;;;;;;31.23;15.40;;;0.00;99.90;;;;;;5071401;28;20184;-78
2023/12/02 05:28:52;;;;;;;33.00;16.80;;;0.00;99.90;;;;;;5053491;28;20182;-81
2023/12/02 05:31:19;;;;;;;29.70;16.20;;;-0.10;99.90;;;;;;5069212;28;20759;-82
2023/12/02 05:33:45;;;;;;;25.38;13.80;;;-0.10;99.90;;;;;;5053122;28;20189;-80
2023/12/02 05:36:11;;;;;;;31.87;13.70;;;-0.10;99.90;;;;;;5036856;28;20749;-75
2023/12/02 05:38:36;;;;;;;29.73;14.93;;;0.00;99.90;;;;;;5072044;28;20464;-77
2023/12/02 05:41:06;;;;;;;22.00;13.03;;;0.00;99.90;;;;;;5054025;28;20201;-77
2023/12/02 05:43:32;;;;;;;21.70;12.07;;;0.00;99.90;;;;;;5071282;28;20179;-78
2023/12/02 05:45:58;;;;;;;21.00;11.57;;;0.00;99.90;;;;;;5069300;28;20191;-78
2023/12/02 05:48:24;;;;;;;21.10;11.23;;;0.00;99.90;;;;;;5070403;28;20445;-76
2023/12/02 05:50:50;;;;;;;18.17;11.10;;;-0.10;99.90;;;;;;5052161;28;20191;-77
2023/12/02 05:53:16;;;;;;;21.90;10.80;;;-0.10;99.90;;;;;;5069519;28;20216;-77
2023/12/02 05:55:41;;;;;;;18.80;10.87;;;-0.10;99.90;;;;;;5069115;28;20231;-77
2023/12/02 05:58:07;;;;;;;18.23;10.53;;;0.00;99.90;;;;;;5051484;28;20234;-77
2023/12/02 06:00:35;;;;;;;17.33;10.37;;;-0.10;99.90;;;;;;5068246;28;20209;-77
2023/12/02 06:03:01;;;;;;;15.57;9.85;;;0.00;99.90;;;;;;5035445;28;20445;-76
2023/12/02 06:05:26;;;;;;;20.92;11.00;;;-0.10;99.90;;;;;;5068366;28;20276;-78
2023/12/02 06:07:53;;;;;;;22.97;12.17;;;-0.10;99.90;;;;;;5070090;28;20643;-78
2023/12/02 06:10:18;;;;;;;19.75;11.50;;;-0.10;99.90;;;;;;5068241;28;20184;-75
2023/12/02 06:12:44;;;;;;;20.17;11.37;;;-0.10;99.90;;;;;;5069081;28;20209;-78
2023/12/02 06:15:11;;;;;;;23.30;13.20;;;-0.10;99.90;;;;;;5067996;28;20237;-77
2023/12/02 06:17:37;;;;;;;22.55;12.90;;;-0.10;99.90;;;;;;5069637;28;20179;-77
2023/12/02 06:20:03;;;;;;;24.30;12.87;;;-0.10;99.90;;;;;;5068565;28;20236;-77
2023/12/02 06:22:29;;;;;;;20.90;12.00;;;0.00;99.90;;;;;;5068785;28;20441;-77
2023/12/02 06:24:54;;;;;;;20.37;12.63;;;-0.10;99.90;;;;;;5067326;28;20193;-77
2023/12/02 06:27:20;;;;;;;22.60;12.40;;;-0.10;99.90;;;;;;5067477;28;20184;-78
2023/12/02 06:29:46;;;;;;;19.37;10.37;;;0.10;99.90;;;;;;5070157;28;20241;-78
2023/12/02 06:32:12;;;;;;;15.20;9.75;;;-0.20;99.90;;;;;;5070812;28;20235;-77
2023/12/02 06:34:37;;;;;;;17.50;10.30;;;-0.20;99.90;;;;;;5068654;28;20630;-78
2023/12/02 06:37:03;;;;;;;17.87;9.97;;;-0.30;99.90;;;;;;5068615;28;20187;-78
2023/12/02 06:39:29;;;;;;;19.33;10.90;;;-0.30;99.90;;;;;;5068247;28;20269;-79
2023/12/02 06:41:55;;;;;;;17.83;10.07;;;-0.30;99.90;;;;;;5052128;28;20560;-77
2023/12/02 06:44:21;;;;;;;18.80;11.20;;;-0.30;99.90;;;;;;5068733;28;20922;-77
2023/12/02 06:46:47;;;;;;;21.38;11.55;;;-0.40;99.90;;;;;;5051628;28;20185;-76
2023/12/02 06:49:13;;;;;;;15.97;9.60;;;-0.50;99.90;;;;;;5067456;28;20188;-78
2023/12/02 06:51:38;;;;;;;17.40;9.93;;;-0.50;99.90;;;;;;5068575;28;20256;-79
2023/12/02 06:54:04;;;;;;;19.63;10.70;;;-0.50;99.90;;;;;;5068623;28;20217;-78
2023/12/02 06:56:29;;;;;;;18.70;10.77;;;-0.50;99.90;;;;;;5067635;28;20228;-78
2023/12/02 06:58:55;;;;;;;17.13;10.57;;;-0.50;99.90;;;;;;5068767;28;20710;-78
2023/12/02 07:01:28;;;;;;;16.50;10.80;;;-0.50;99.90;;;;;;5068724;28;20193;-77
2023/12/02 07:03:59;;;;;;;15.70;10.20;;;-0.50;99.90;;;;;;5069997;28;20176;-78
2023/12/02 07:06:26;;;;;;;17.38;10.20;;;-0.50;99.90;;;;;;5069334;28;20208;-78
2023/12/02 07:08:52;;;;;;;19.15;11.23;;;-0.50;99.90;;;;;;5068463;28;20245;-78
2023/12/02 07:11:18;;;;;;;18.13;11.35;;;-0.60;99.90;;;;;;5069859;28;20184;-78
2023/12/02 07:13:44;;;;;;;21.73;12.52;;;-0.50;99.90;;;;;;5067936;28;20187;-78
2023/12/02 07:16:11;;;;;;;21.43;13.00;;;-0.40;99.90;;;;;;5067177;28;20194;-78
2023/12/02 07:18:37;;;;;;;18.80;11.68;;;-0.40;99.90;;;;;;5051648;28;20481;-78
2023/12/02 07:21:03;;;;;;;22.58;11.38;;;-0.50;99.90;;;;;;5067549;28;20768;-78
2023/12/02 07:23:28;;;;;;;19.17;11.00;;;-0.50;99.90;;;;;;5067640;28;20208;-78
2023/12/02 07:25:55;;;;;;;19.23;12.33;;;-0.50;99.90;;;;;;5068568;28;20206;-77
2023/12/02 07:28:21;;;;;;;30.42;16.13;;;-0.50;99.90;;;;;;5067926;28;20188;-78
2023/12/02 07:30:48;;;;;;;24.30;14.47;;;-0.40;99.90;;;;;;5068076;28;20828;-78
2023/12/02 07:33:14;;;;;;;18.02;11.10;;;-0.40;99.90;;;;;;5068950;28;20199;-78
2023/12/02 07:35:39;;;;;;;15.03;9.80;;;-0.40;99.90;;;;;;5070541;28;20365;-78
2023/12/02 07:38:05;;;;;;;18.20;8.70;;;-0.50;99.90;;;;;;5071106;28;20452;-78
2023/12/02 07:40:31;;;;;;;13.53;8.73;;;-0.50;99.90;;;;;;5052965;28;20670;-79
2023/12/02 07:42:56;;;;;;;17.13;8.57;;;-0.60;99.90;;;;;;5036240;28;20203;-78
2023/12/02 07:45:22;;;;;;;13.30;8.77;;;-0.60;99.90;;;;;;5070965;28;20183;-78
2023/12/02 07:47:47;;;;;;;12.53;8.70;;;-0.60;99.90;;;;;;5069666;28;20643;-78
2023/12/02 07:50:13;;;;;;;16.40;9.63;;;-0.60;99.90;;;;;;5070428;28;20190;-78
2023/12/02 07:52:39;;;;;;;12.63;9.13;;;-0.60;99.90;;;;;;5071127;28;20883;-79
2023/12/02 07:55:05;;;;;;;10.77;8.23;;;-0.60;99.90;;;;;;5069859;28;20195;-78
2023/12/02 07:57:30;;;;;;;13.50;9.75;;;-0.60;99.90;;;;;;5069742;28;20739;-78
2023/12/02 07:59:56;;;;;;;15.80;10.30;;;-0.60;99.90;;;;;;5069924;28;20237;-78
2023/12/02 08:02:22;;;;;;;15.73;9.93;;;-0.60;99.90;;;;;;5070502;28;20198;-78
2023/12/02 08:04:47;;;;;;;17.33;10.93;;;-0.70;99.90;;;;;;5070961;28;20249;-78
2023/12/02 08:07:13;;;;;;;16.37;10.77;;;-0.60;99.90;;;;;;5068323;28;20721;-78
2023/12/02 08:09:38;;;;;;;17.60;11.00;;;-0.60;99.90;;;;;;5035107;28;20245;-79
2023/12/02 08:12:05;;;;;;;18.03;11.00;;;-0.60;99.90;;;;;;5051491;28;20282;-78
2023/12/02 08:14:30;;;;;;;17.65;10.63;;;-0.50;99.90;;;;;;5069850;28;20222;-79
2023/12/02 08:16:56;;;;;;;17.07;11.23;;;-0.60;99.90;;;;;;5069468;28;20219;-77
2023/12/02 08:19:21;;;;;;;14.47;9.20;;;-0.60;99.90;;;;;;5070804;28;20238;-77
2023/12/02 08:21:47;;;;;;;14.33;9.73;;;-0.60;99.90;;;;;;5067090;28;20199;-79
2023/12/02 08:24:13;;;;;;;20.83;11.30;;;-0.70;99.90;;;;;;5067403;28;20251;-78
2023/12/02 08:26:39;;;;;;;18.90;10.97;;;-0.80;99.90;;;;;;5068186;28;20183;-76
2023/12/02 08:29:04;;;;;;;20.40;12.13;;;-0.70;99.90;;;;;;5067685;28;20175;-77
2023/12/02 08:31:32;;;;;;;19.43;12.50;;;-0.80;99.90;;;;;;5066780;28;20286;-78
2023/12/02 08:33:57;;;;;;;19.27;11.45;;;-0.70;99.90;;;;;;5067466;28;20181;-77
2023/12/02 08:36:23;;;;;;;21.37;11.90;;;-0.80;99.90;;;;;;5065191;28;20662;-78
2023/12/02 08:38:49;;;;;;;24.77;13.30;;;-0.80;99.90;;;;;;5065201;28;20247;-77
2023/12/02 08:41:14;;;;;;;18.47;11.00;;;-0.70;99.90;;;;;;5066752;28;20184;-76
2023/12/02 08:43:43;;;;;;;18.10;11.07;;;-0.80;99.90;;;;;;5066772;28;20455;-75
2023/12/02 08:46:18;;;;;;;21.08;12.40;;;-0.80;99.90;;;;;;5069864;28;20180;-76
2023/12/02 08:48:44;;;;;;;16.92;10.52;;;-0.80;99.90;;;;;;5068438;28;20191;-78
2023/12/02 08:51:10;;;;;;;20.05;12.25;;;-0.90;99.90;;;;;;5068499;28;20715;-76
2023/12/02 08:53:35;;;;;;;23.77;11.47;;;-0.90;99.90;;;;;;5070106;28;20238;-75
2023/12/02 08:56:01;;;;;;;24.57;12.90;;;-0.90;99.90;;;;;;5069096;28;20197;-76
2023/12/02 08:58:27;;;;;;;23.07;12.07;;;-0.80;99.90;;;;;;5070700;28;20238;-74
2023/12/02 09:00:53;;;;;;;18.90;11.20;;;-0.80;99.90;;;;;;5070909;28;20234;-74
2023/12/02 09:03:18;;;;;;;17.50;11.63;;;-0.80;99.90;;;;;;5069362;28;20214;-72
2023/12/02 09:05:44;;;;;;;19.40;12.10;;;-0.90;99.90;;;;;;5070954;28;20183;-74
2023/12/02 09:08:10;;;;;;;16.60;11.37;;;-1.00;99.90;;;;;;5068959;28;20563;-74
2023/12/02 09:10:36;;;;;;;19.30;12.05;;;-1.00;99.90;;;;;;5070286;28;20426;-73
2023/12/02 09:13:11;;;;;;;17.00;11.13;;;-0.90;99.90;;;;;;5070354;28;20210;-73
2023/12/02 09:15:40;;;;;;;21.48;11.88;;;-1.00;99.90;;;;;;5069139;28;20183;-72
2023/12/02 09:18:06;;;;;;;19.77;12.25;;;-0.90;99.90;;;;;;5068907;28;20179;-73
2023/12/02 09:20:40;;;;;;;18.50;11.70;;;-1.00;99.90;;;;;;5070503;28;20764;-74
2023/12/02 09:23:06;;;;;;;21.45;12.27;;;-0.90;99.90;;;;;;5070409;28;20204;-77
2023/12/02 09:25:35;;;;;;;20.65;12.85;;;-0.90;99.90;;;;;;5068775;28;20186;-76
2023/12/02 09:28:13;;;;;;;19.17;12.40;;;-0.90;99.90;;;;;;5071423;28;20262;-75
2023/12/02 09:30:56;;;;;;;18.77;11.05;;;-1.00;99.90;;;;;;5070489;28;20498;-74
2023/12/02 09:33:21;;;;;;;20.52;13.07;;;-1.00;99.90;;;;;;5070159;28;20209;-71
2023/12/02 09:35:54;;;;;;;19.07;11.07;;;-1.00;99.90;;;;;;5070417;28;20969;-71
2023/12/02 09:38:20;;;;;;;19.70;12.88;;;-1.10;99.90;;;;;;5070206;28;20725;-71
2023/12/02 09:40:49;;;;;;;21.48;11.55;;;-1.00;99.90;;;;;;5069959;28;20926;-72
2023/12/02 09:43:37;;;;;;;19.10;11.73;;;-1.10;99.90;;;;;;5069793;28;20203;-74
2023/12/02 09:46:26;;;;;;;16.90;10.90;;;-1.00;99.90;;;;;;5072457;28;20179;-78
2023/12/02 09:49:29;;;;;;;17.23;10.48;;;-1.00;99.90;;;;;;5071334;28;20192;-75
2023/12/02 09:51:54;;;;;;;19.08;11.43;;;-1.10;99.90;;;;;;5070150;28;20198;-73
2023/12/02 09:54:32;;;;;;;20.43;10.30;;;-1.00;99.90;;;;;;5070846;28;20206;-78
2023/12/02 09:57:16;;;;;;;21.95;10.13;;;-0.90;99.90;;;;;;5068291;28;20672;-76
2023/12/02 09:59:54;;;;;;;17.15;10.68;;;-1.00;99.90;;;;;;5067734;28;20211;-77
2023/12/02 10:02:31;;;;;;;16.70;10.52;;;-1.20;99.90;;;;;;5069979;28;20198;-78
2023/12/02 10:05:23;;;;;;;22.38;11.60;;;-1.10;99.90;;;;;;5071113;28;20189;-76
2023/12/02 10:08:23;;;;;;;20.05;10.50;;;-1.10;99.90;;;;;;5068023;28;20562;-78
2023/12/02 10:11:04;;;;;;;20.92;11.23;;;-1.00;99.90;;;;;;5069864;28;20171;-77
2023/12/02 10:13:53;;;;;;;19.33;10.95;;;-1.00;99.90;;;;;;5069354;28;20261;-78
2023/12/02 10:16:23;;;;;;;15.77;9.98;;;-1.00;99.90;;;;;;5069111;28;20171;-78
2023/12/02 10:18:56;;;;;;;17.10;10.57;;;-1.00;99.90;;;;;;5051463;28;20258;-77
2023/12/02 10:21:21;;;;;;;19.58;11.43;;;-0.80;99.90;;;;;;5067576;28;20184;-77
2023/12/02 10:24:01;;;;;;;22.77;13.23;;;-0.70;99.90;;;;;;5067698;28;20869;-77
2023/12/02 10:26:26;;;;;;;20.35;11.93;;;-0.60;99.90;;;;;;5067262;28;20210;-77
2023/12/02 10:29:09;;;;;;;18.70;10.83;;;-0.70;99.90;;;;;;5069246;28;20212;-76
2023/12/02 10:31:39;;;;;;;18.52;10.80;;;-0.60;99.90;;;;;;5069117;28;20895;-77
2023/12/02 10:34:36;;;;;;;18.67;10.70;;;-0.60;99.90;;;;;;5069469;28;20191;-77
2023/12/02 10:37:04;;;;;;;15.85;10.05;;;-0.60;99.90;;;;;;5069448;28;20194;-76
2023/12/02 10:39:56;;;;;;;17.73;11.30;;;-0.60;99.90;;;;;;5067025;28;20198;-76
2023/12/02 10:42:49;;;;;;;21.17;11.38;;;-0.50;99.90;;;;;;5063977;28;20727;-76
2023/12/02 10:45:16;;;;;;;17.20;10.68;;;-0.50;99.90;;;;;;5069060;28;20191;-75
2023/12/02 10:47:45;;;;;;;19.08;11.30;;;-0.50;99.90;;;;;;5070566;28;20266;-78
2023/12/02 10:50:12;;;;;;;21.70;12.20;;;-0.50;99.90;;;;;;5071411;28;20179;-78
2023/12/02 10:52:39;;;;;;;18.48;11.60;;;-0.50;99.90;;;;;;5052347;28;20216;-78
2023/12/02 10:55:06;;;;;;;18.85;10.70;;;-0.60;99.90;;;;;;5068968;28;20283;-76
2023/12/02 10:57:33;;;;;;;18.60;10.65;;;-0.60;99.90;;;;;;5069090;28;20202;-77
2023/12/02 11:00:06;;;;;;;18.40;11.48;;;-0.70;99.90;;;;;;5070042;28;20240;-77
2023/12/02 11:02:45;;;;;;;20.13;12.15;;;-0.70;99.90;;;;;;5070505;28;20195;-78
2023/12/02 11:05:21;;;;;;;19.25;10.80;;;-0.70;99.90;;;;;;5068732;28;20184;-78
2023/12/02 11:08:03;;;;;;;16.08;10.48;;;-0.70;99.90;;;;;;5070239;28;20170;-78
2023/12/02 11:10:43;;;;;;;19.80;11.38;;;-0.60;99.90;;;;;;5070396;28;20179;-78
2023/12/02 11:13:21;;;;;;;18.15;11.10;;;-0.70;99.90;;;;;;5068918;28;20686;-78
2023/12/02 11:15:46;;;;;;;16.40;11.27;;;-0.80;99.90;;;;;;5069522;28;20184;-77
2023/12/02 11:18:20;;;;;;;17.07;10.00;;;-0.90;99.90;;;;;;5067517;28;20196;-77
2023/12/02 11:20:58;;;;;;;14.75;8.85;;;-0.90;99.90;;;;;;5069240;28;20271;-77
2023/12/02 11:23:48;;;;;;;17.70;10.55;;;-0.90;99.90;;;;;;5069204;28;20202;-76
2023/12/02 11:26:39;;;;;;;17.25;10.60;;;-0.90;99.90;;;;;;5066774;28;20172;-76
2023/12/02 11:29:27;;;;;;;18.08;11.43;;;-0.90;99.90;;;;;;5068394;28;20210;-77
2023/12/02 11:32:02;;;;;;;19.65;11.63;;;-0.90;99.90;;;;;;5048320;28;20215;-75
2023/12/02 11:35:07;;;;;;;18.73;11.30;;;-0.80;99.90;;;;;;5068490;28;20175;-77
2023/12/02 11:37:49;;;;;;;15.55;10.82;;;-0.70;99.90;;;;;;5066875;28;20205;-76
2023/12/02 11:40:28;;;;;;;18.58;12.10;;;-0.70;99.90;;;;;;5068006;28;20306;-76
2023/12/02 11:42:56;;;;;;;17.23;10.95;;;-0.80;99.90;;;;;;5066694;28;20202;-76
2023/12/02 11:45:29;;;;;;;18.45;10.85;;;-0.80;99.90;;;;;;5068150;28;20193;-76
2023/12/02 11:48:20;;;;;;;14.40;9.85;;;-0.80;99.90;;;;;;5066938;28;20648;-76
2023/12/02 11:51:05;;;;;;;20.17;9.65;;;-0.80;99.90;;;;;;5067981;28;20175;-76
2023/12/02 11:53:54;;;;;;;17.17;10.75;;;-0.90;99.90;;;;;;5067873;28;20272;-76
2023/12/02 11:56:22;;;;;;;16.20;10.40;;;-1.00;99.90;;;;;;5068098;28;20704;-76
2023/12/02 11:58:58;;;;;;;18.73;10.80;;;-1.00;99.90;;;;;;5067509;28;20202;-76
2023/12/02 12:01:47;;;;;;;15.65;9.50;;;-0.90;99.90;;;;;;5067441;28;20178;-76
2023/12/02 12:04:32;;;;;;;19.17;10.73;;;-1.10;99.90;;;;;;5068298;28;20269;-78
2023/12/02 12:07:12;;;;;;;17.48;10.40;;;-1.00;99.90;;;;;;5066242;28;20198;-76
2023/12/02 12:09:56;;;;;;;16.45;10.40;;;-1.00;99.90;;;;;;5066502;28;20182;-76
2023/12/02 12:12:25;;;;;;;17.08;10.43;;;-1.00;99.90;;;;;;5067356;28;20655;-76
2023/12/02 12:14:51;;;;;;;18.55;11.80;;;-1.00;99.90;;;;;;5065837;28;20638;-77
2023/12/02 12:17:17;;;;;;;19.38;10.93;;;-0.90;99.90;;;;;;5067303;28;20655;-76
2023/12/02 12:19:43;;;;;;;20.30;11.87;;;-0.90;99.90;;;;;;5068828;28;20211;-76
2023/12/02 12:22:08;;;;;;;15.70;10.60;;;-0.80;99.90;;;;;;5070788;28;20290;-76
2023/12/02 12:24:35;;;;;;;17.17;10.60;;;-0.90;99.90;;;;;;5070929;28;20186;-76
2023/12/02 12:27:00;;;;;;;20.20;10.43;;;-0.90;99.90;;;;;;5069736;28;20196;-75
2023/12/02 12:29:26;;;;;;;18.63;10.80;;;-1.10;99.90;;;;;;5036905;28;20193;-76
2023/12/02 12:31:54;;;;;;;16.37;10.40;;;-1.10;99.90;;;;;;5069496;28;20215;-76
2023/12/02 12:34:20;;;;;;;17.00;10.93;;;-1.20;99.90;;;;;;5069804;28;20619;-76
2023/12/02 12:36:46;;;;;;;22.58;14.15;;;-1.10;99.90;;;;;;5071114;28;20184;-76
2023/12/02 12:39:14;;;;;;;21.23;14.77;;;-1.20;99.90;;;;;;5070775;28;20268;-75